CYHU/YHU METAR and TAF weather

Enter ICAO airport designator
Station Type Date Time Source
CYHU METAR 2018/01/22 20:00 UTC NOAA

CYHU 222000Z AUTO 03015KT 9SM OVC033 M06/M12 A3026 RMK SLP249


Station Type Date Time Source
CYHU Decoded METAR 2018/01/22 20:00 UTC NOAA

Saint Hubert Airport , Canada (CYHU) 45-31N 073-25W
Jan 22, 2018 - 03:00 PM EST / 2018.01.22 2000 UTC
Wind: from the NNE (030 degrees) at 17 MPH (15 KT):0
Visibility: 9 mile(s):0
Sky conditions: overcast
Temperature: 21 F (-6 C)
Windchill: 6 F (-14 C):1
Dew Point: 10 F (-12 C)
Relative Humidity: 62%
Pressure (altimeter): 30.26 in. Hg (1024 hPa)
ob: CYHU 222000Z AUTO 03015KT 9SM OVC033 M06/M12 A3026 RMK SLP249
cycle: 20

Station Type Date Time Source
CYHU TAF 2018/01/22 18:42 UTC NOAA

TAF CYHU 221738Z 2218/2318 04015G25KT P6SM SCT025 OVC060
TEMPO 2218/2221 6SM -SN OVC020
FM222100 04020G30KT 3/4SM -SN BLSN VV008
TEMPO 2221/2223 3SM -SN OVC015 PROB30 2301/2304 11/2SM -SNPL
FM230400 04015KT 11/2SM -PLSN OVC007
TEMPO 2304/2306 21/2SM -FZRA BR OVC010
FM230600 05012KT 21/2SM -FZRA BR OVC004
FM231500 14008KT 2SM -RA BR OVC004
RMK FCST BASED ON AUTO OBS. NXT FCST BY 230000Z


Example: see airport list